sensor_id;sensor_type;location;lat;lon;timestamp;P1;durP1;ratioP1;P2;durP2;ratioP2
34900;SDS011;21112;51.976;5.660;2024-03-25T00:01:19;8.00;;;1.42;;
34900;SDS011;21112;51.976;5.660;2024-03-25T00:03:46;6.65;;;1.27;;
34900;SDS011;21112;51.976;5.660;2024-03-25T00:06:12;5.78;;;1.17;;
34900;SDS011;21112;51.976;5.660;2024-03-25T00:08:38;4.60;;;1.30;;
34900;SDS011;21112;51.976;5.660;2024-03-25T00:11:06;9.52;;;1.08;;
34900;SDS011;21112;51.976;5.660;2024-03-25T00:13:34;4.30;;;1.05;;
34900;SDS011;21112;51.976;5.660;2024-03-25T00:16:00;5.40;;;1.35;;
34900;SDS011;21112;51.976;5.660;2024-03-25T00:18:27;7.03;;;1.45;;
34900;SDS011;21112;51.976;5.660;2024-03-25T00:20:52;11.43;;;1.13;;
34900;SDS011;21112;51.976;5.660;2024-03-25T00:23:19;8.15;;;1.17;;
34900;SDS011;21112;51.976;5.660;2024-03-25T00:25:45;6.03;;;0.98;;
34900;SDS011;21112;51.976;5.660;2024-03-25T00:28:14;5.55;;;1.15;;
34900;SDS011;21112;51.976;5.660;2024-03-25T00:30:39;9.35;;;1.38;;
34900;SDS011;21112;51.976;5.660;2024-03-25T00:33:06;5.55;;;1.27;;
34900;SDS011;21112;51.976;5.660;2024-03-25T00:35:32;9.13;;;1.15;;
34900;SDS011;21112;51.976;5.660;2024-03-25T00:37:59;11.07;;;1.48;;
34900;SDS011;21112;51.976;5.660;2024-03-25T00:40:24;12.27;;;1.98;;
34900;SDS011;21112;51.976;5.660;2024-03-25T00:42:51;6.18;;;1.38;;
34900;SDS011;21112;51.976;5.660;2024-03-25T00:45:18;7.60;;;1.67;;
34900;SDS011;21112;51.976;5.660;2024-03-25T00:47:45;6.72;;;1.20;;
34900;SDS011;21112;51.976;5.660;2024-03-25T00:50:11;8.32;;;1.38;;
34900;SDS011;21112;51.976;5.660;2024-03-25T00:52:38;6.70;;;1.30;;
34900;SDS011;21112;51.976;5.660;2024-03-25T00:55:04;5.75;;;1.48;;
34900;SDS011;21112;51.976;5.660;2024-03-25T00:57:36;17.30;;;1.98;;
34900;SDS011;21112;51.976;5.660;2024-03-25T01:00:01;5.32;;;1.10;;
34900;SDS011;21112;51.976;5.660;2024-03-25T01:02:31;10.98;;;2.10;;
34900;SDS011;21112;51.976;5.660;2024-03-25T01:04:57;9.03;;;1.43;;
34900;SDS011;21112;51.976;5.660;2024-03-25T01:07:24;10.82;;;1.35;;
34900;SDS011;21112;51.976;5.660;2024-03-25T01:09:50;12.18;;;1.95;;
34900;SDS011;21112;51.976;5.660;2024-03-25T01:12:17;9.05;;;1.33;;
34900;SDS011;21112;51.976;5.660;2024-03-25T01:14:42;8.32;;;0.98;;
34900;SDS011;21112;51.976;5.660;2024-03-25T01:17:09;5.93;;;1.30;;
34900;SDS011;21112;51.976;5.660;2024-03-25T01:19:38;8.80;;;1.48;;
34900;SDS011;21112;51.976;5.660;2024-03-25T01:22:04;10.43;;;1.42;;
34900;SDS011;21112;51.976;5.660;2024-03-25T01:24:35;6.63;;;1.33;;
34900;SDS011;21112;51.976;5.660;2024-03-25T01:27:01;8.52;;;1.48;;
34900;SDS011;21112;51.976;5.660;2024-03-25T01:29:28;9.73;;;1.70;;
34900;SDS011;21112;51.976;5.660;2024-03-25T01:31:53;10.98;;;1.83;;
34900;SDS011;21112;51.976;5.660;2024-03-25T01:34:20;8.35;;;1.42;;
34900;SDS011;21112;51.976;5.660;2024-03-25T01:36:47;12.85;;;1.70;;
34900;SDS011;21112;51.976;5.660;2024-03-25T01:39:14;7.45;;;1.65;;
34900;SDS011;21112;51.976;5.660;2024-03-25T01:41:39;14.52;;;1.60;;
34900;SDS011;21112;51.976;5.660;2024-03-25T01:44:06;10.10;;;1.20;;
34900;SDS011;21112;51.976;5.660;2024-03-25T01:46:32;10.45;;;1.23;;
34900;SDS011;21112;51.976;5.660;2024-03-25T01:48:59;11.25;;;1.50;;
34900;SDS011;21112;51.976;5.660;2024-03-25T01:51:24;15.82;;;1.60;;
34900;SDS011;21112;51.976;5.660;2024-03-25T01:53:53;13.32;;;1.75;;
34900;SDS011;21112;51.976;5.660;2024-03-25T01:56:20;8.18;;;1.40;;
34900;SDS011;21112;51.976;5.660;2024-03-25T01:58:49;10.93;;;2.00;;
34900;SDS011;21112;51.976;5.660;2024-03-25T02:01:15;7.72;;;1.90;;
34900;SDS011;21112;51.976;5.660;2024-03-25T02:03:45;11.15;;;1.45;;
34900;SDS011;21112;51.976;5.660;2024-03-25T02:06:12;7.30;;;1.30;;
34900;SDS011;21112;51.976;5.660;2024-03-25T02:08:40;10.43;;;1.73;;
34900;SDS011;21112;51.976;5.660;2024-03-25T02:11:10;4.97;;;1.17;;
34900;SDS011;21112;51.976;5.660;2024-03-25T02:13:38;6.65;;;1.25;;
34900;SDS011;21112;51.976;5.660;2024-03-25T02:16:09;4.45;;;1.50;;
34900;SDS011;21112;51.976;5.660;2024-03-25T02:18:36;8.02;;;1.50;;
34900;SDS011;21112;51.976;5.660;2024-03-25T02:21:02;15.75;;;1.67;;
34900;SDS011;21112;51.976;5.660;2024-03-25T02:23:30;7.70;;;1.38;;
34900;SDS011;21112;51.976;5.660;2024-03-25T02:25:58;8.45;;;1.17;;
34900;SDS011;21112;51.976;5.660;2024-03-25T02:28:25;10.65;;;1.45;;
34900;SDS011;21112;51.976;5.660;2024-03-25T02:30:51;10.57;;;1.45;;
34900;SDS011;21112;51.976;5.660;2024-03-25T02:33:17;9.73;;;1.20;;
34900;SDS011;21112;51.976;5.660;2024-03-25T02:35:43;6.68;;;1.35;;
34900;SDS011;21112;51.976;5.660;2024-03-25T02:38:10;9.57;;;1.77;;
34900;SDS011;21112;51.976;5.660;2024-03-25T02:40:36;9.13;;;1.60;;
34900;SDS011;21112;51.976;5.660;2024-03-25T02:43:05;5.38;;;1.50;;
34900;SDS011;21112;51.976;5.660;2024-03-25T02:45:32;9.77;;;1.50;;
34900;SDS011;21112;51.976;5.660;2024-03-25T02:47:59;8.63;;;1.80;;
34900;SDS011;21112;51.976;5.660;2024-03-25T02:50:25;6.88;;;1.45;;
34900;SDS011;21112;51.976;5.660;2024-03-25T02:52:52;7.07;;;1.30;;
34900;SDS011;21112;51.976;5.660;2024-03-25T02:55:17;9.57;;;1.52;;
34900;SDS011;21112;51.976;5.660;2024-03-25T02:57:45;11.65;;;1.55;;
34900;SDS011;21112;51.976;5.660;2024-03-25T03:00:12;11.18;;;1.77;;
34900;SDS011;21112;51.976;5.660;2024-03-25T03:02:39;8.95;;;1.67;;
34900;SDS011;21112;51.976;5.660;2024-03-25T03:05:05;13.18;;;1.55;;
34900;SDS011;21112;51.976;5.660;2024-03-25T03:07:32;7.18;;;1.73;;
34900;SDS011;21112;51.976;5.660;2024-03-25T03:09:58;9.18;;;1.55;;
34900;SDS011;21112;51.976;5.660;2024-03-25T03:12:24;12.95;;;1.48;;
34900;SDS011;21112;51.976;5.660;2024-03-25T03:14:50;12.63;;;1.80;;
34900;SDS011;21112;51.976;5.660;2024-03-25T03:17:18;5.90;;;1.25;;
34900;SDS011;21112;51.976;5.660;2024-03-25T03:19:44;4.60;;;1.08;;
34900;SDS011;21112;51.976;5.660;2024-03-25T03:22:11;12.32;;;1.70;;
34900;SDS011;21112;51.976;5.660;2024-03-25T03:24:37;8.73;;;1.50;;
34900;SDS011;21112;51.976;5.660;2024-03-25T03:27:04;8.85;;;1.50;;
34900;SDS011;21112;51.976;5.660;2024-03-25T03:29:29;3.80;;;0.98;;
34900;SDS011;21112;51.976;5.660;2024-03-25T03:31:56;7.25;;;1.70;;
34900;SDS011;21112;51.976;5.660;2024-03-25T03:34:23;8.95;;;1.30;;
34900;SDS011;21112;51.976;5.660;2024-03-25T03:36:50;4.50;;;1.17;;
34900;SDS011;21112;51.976;5.660;2024-03-25T03:39:16;7.65;;;1.67;;
34900;SDS011;21112;51.976;5.660;2024-03-25T03:41:45;5.93;;;1.45;;
34900;SDS011;21112;51.976;5.660;2024-03-25T03:44:11;4.45;;;1.63;;
34900;SDS011;21112;51.976;5.660;2024-03-25T03:46:40;10.13;;;1.80;;
34900;SDS011;21112;51.976;5.660;2024-03-25T03:49:05;7.10;;;1.58;;
34900;SDS011;21112;51.976;5.660;2024-03-25T03:51:33;4.78;;;1.17;;
34900;SDS011;21112;51.976;5.660;2024-03-25T03:54:02;9.25;;;1.80;;
34900;SDS011;21112;51.976;5.660;2024-03-25T03:56:29;5.50;;;1.35;;
34900;SDS011;21112;51.976;5.660;2024-03-25T03:58:54;10.65;;;1.58;;
34900;SDS011;21112;51.976;5.660;2024-03-25T04:01:21;8.80;;;1.27;;
34900;SDS011;21112;51.976;5.660;2024-03-25T04:03:47;9.13;;;1.85;;
34900;SDS011;21112;51.976;5.660;2024-03-25T04:06:14;8.25;;;1.42;;
34900;SDS011;21112;51.976;5.660;2024-03-25T04:08:42;10.13;;;1.58;;
34900;SDS011;21112;51.976;5.660;2024-03-25T04:11:08;7.18;;;1.55;;
34900;SDS011;21112;51.976;5.660;2024-03-25T04:13:35;6.72;;;1.50;;
34900;SDS011;21112;51.976;5.660;2024-03-25T04:16:02;10.73;;;1.45;;
34900;SDS011;21112;51.976;5.660;2024-03-25T04:18:29;7.50;;;1.65;;
34900;SDS011;21112;51.976;5.660;2024-03-25T04:20:56;6.75;;;1.52;;
34900;SDS011;21112;51.976;5.660;2024-03-25T04:23:22;9.60;;;1.73;;
34900;SDS011;21112;51.976;5.660;2024-03-25T04:25:50;5.20;;;1.83;;
34900;SDS011;21112;51.976;5.660;2024-03-25T04:28:16;6.00;;;1.50;;
34900;SDS011;21112;51.976;5.660;2024-03-25T04:30:43;5.53;;;1.48;;
34900;SDS011;21112;51.976;5.660;2024-03-25T04:33:09;10.43;;;1.38;;
34900;SDS011;21112;51.976;5.660;2024-03-25T04:35:36;4.63;;;1.20;;
34900;SDS011;21112;51.976;5.660;2024-03-25T04:38:02;5.75;;;1.27;;
34900;SDS011;21112;51.976;5.660;2024-03-25T04:40:28;6.72;;;1.60;;
34900;SDS011;21112;51.976;5.660;2024-03-25T04:42:55;9.50;;;1.52;;
34900;SDS011;21112;51.976;5.660;2024-03-25T04:45:21;8.55;;;1.63;;
34900;SDS011;21112;51.976;5.660;2024-03-25T04:47:47;6.60;;;1.63;;
34900;SDS011;21112;51.976;5.660;2024-03-25T04:50:13;10.05;;;1.73;;
34900;SDS011;21112;51.976;5.660;2024-03-25T04:52:39;8.00;;;1.73;;
34900;SDS011;21112;51.976;5.660;2024-03-25T04:55:07;10.93;;;1.63;;
34900;SDS011;21112;51.976;5.660;2024-03-25T05:00:00;5.53;;;1.67;;
34900;SDS011;21112;51.976;5.660;2024-03-25T05:02:26;5.93;;;1.57;;
34900;SDS011;21112;51.976;5.660;2024-03-25T05:04:52;11.82;;;2.38;;
34900;SDS011;21112;51.976;5.660;2024-03-25T05:07:20;12.63;;;2.00;;
34900;SDS011;21112;51.976;5.660;2024-03-25T05:09:47;6.13;;;1.65;;
34900;SDS011;21112;51.976;5.660;2024-03-25T05:12:13;9.00;;;2.15;;
34900;SDS011;21112;51.976;5.660;2024-03-25T05:14:39;8.27;;;1.92;;
34900;SDS011;21112;51.976;5.660;2024-03-25T05:17:06;11.30;;;2.17;;
34900;SDS011;21112;51.976;5.660;2024-03-25T05:19:31;8.30;;;2.05;;
34900;SDS011;21112;51.976;5.660;2024-03-25T05:21:57;5.55;;;1.73;;
34900;SDS011;21112;51.976;5.660;2024-03-25T05:24:23;6.47;;;1.98;;
34900;SDS011;21112;51.976;5.660;2024-03-25T05:26:49;8.55;;;1.63;;
34900;SDS011;21112;51.976;5.660;2024-03-25T05:29:14;6.18;;;1.63;;
34900;SDS011;21112;51.976;5.660;2024-03-25T05:31:54;8.73;;;1.88;;
34900;SDS011;21112;51.976;5.660;2024-03-25T05:34:23;7.72;;;1.73;;
34900;SDS011;21112;51.976;5.660;2024-03-25T05:36:49;7.40;;;2.28;;
34900;SDS011;21112;51.976;5.660;2024-03-25T05:39:15;25.08;;;6.53;;
34900;SDS011;21112;51.976;5.660;2024-03-25T05:41:41;12.90;;;4.60;;
34900;SDS011;21112;51.976;5.660;2024-03-25T05:44:06;13.75;;;3.20;;
34900;SDS011;21112;51.976;5.660;2024-03-25T05:46:32;9.65;;;2.13;;
34900;SDS011;21112;51.976;5.660;2024-03-25T05:49:01;7.60;;;2.10;;
34900;SDS011;21112;51.976;5.660;2024-03-25T05:51:29;9.30;;;1.98;;
34900;SDS011;21112;51.976;5.660;2024-03-25T05:53:55;7.10;;;2.13;;
34900;SDS011;21112;51.976;5.660;2024-03-25T05:56:23;12.15;;;2.30;;
34900;SDS011;21112;51.976;5.660;2024-03-25T05:58:49;7.77;;;1.80;;
34900;SDS011;21112;51.976;5.660;2024-03-25T06:01:15;8.60;;;2.25;;
34900;SDS011;21112;51.976;5.660;2024-03-25T06:03:40;6.22;;;1.80;;
34900;SDS011;21112;51.976;5.660;2024-03-25T06:06:14;7.95;;;1.98;;
34900;SDS011;21112;51.976;5.660;2024-03-25T06:08:41;12.02;;;2.90;;
34900;SDS011;21112;51.976;5.660;2024-03-25T06:11:07;11.80;;;3.13;;
34900;SDS011;21112;51.976;5.660;2024-03-25T06:13:36;8.27;;;2.00;;
34900;SDS011;21112;51.976;5.660;2024-03-25T06:16:02;9.82;;;2.00;;
34900;SDS011;21112;51.976;5.660;2024-03-25T06:18:28;6.43;;;2.00;;
34900;SDS011;21112;51.976;5.660;2024-03-25T06:20:54;9.20;;;2.13;;
34900;SDS011;21112;51.976;5.660;2024-03-25T06:23:23;9.65;;;2.25;;
34900;SDS011;21112;51.976;5.660;2024-03-25T06:25:51;9.68;;;2.20;;
34900;SDS011;21112;51.976;5.660;2024-03-25T06:28:18;7.68;;;1.80;;
34900;SDS011;21112;51.976;5.660;2024-03-25T06:33:31;6.15;;;2.15;;
34900;SDS011;21112;51.976;5.660;2024-03-25T06:36:15;5.57;;;1.67;;
34900;SDS011;21112;51.976;5.660;2024-03-25T06:38:42;8.35;;;2.05;;
34900;SDS011;21112;51.976;5.660;2024-03-25T06:41:09;11.25;;;2.55;;
34900;SDS011;21112;51.976;5.660;2024-03-25T06:43:36;5.05;;;2.00;;
34900;SDS011;21112;51.976;5.660;2024-03-25T06:46:02;11.95;;;2.92;;
34900;SDS011;21112;51.976;5.660;2024-03-25T06:48:28;6.93;;;1.88;;
34900;SDS011;21112;51.976;5.660;2024-03-25T06:50:55;10.13;;;2.30;;
34900;SDS011;21112;51.976;5.660;2024-03-25T06:53:21;6.00;;;2.20;;
34900;SDS011;21112;51.976;5.660;2024-03-25T06:55:52;12.07;;;2.83;;
34900;SDS011;21112;51.976;5.660;2024-03-25T06:58:21;8.10;;;2.08;;
34900;SDS011;21112;51.976;5.660;2024-03-25T07:00:47;5.68;;;1.55;;
34900;SDS011;21112;51.976;5.660;2024-03-25T07:03:13;13.77;;;1.80;;
34900;SDS011;21112;51.976;5.660;2024-03-25T07:05:41;9.70;;;2.10;;
34900;SDS011;21112;51.976;5.660;2024-03-25T07:08:10;9.85;;;1.90;;
34900;SDS011;21112;51.976;5.660;2024-03-25T07:13:04;9.55;;;2.15;;
34900;SDS011;21112;51.976;5.660;2024-03-25T07:15:32;7.32;;;2.67;;
34900;SDS011;21112;51.976;5.660;2024-03-25T07:18:06;11.57;;;3.55;;
34900;SDS011;21112;51.976;5.660;2024-03-25T07:20:32;13.10;;;3.47;;
34900;SDS011;21112;51.976;5.660;2024-03-25T07:22:58;10.27;;;2.13;;
34900;SDS011;21112;51.976;5.660;2024-03-25T07:25:24;8.68;;;2.10;;
34900;SDS011;21112;51.976;5.660;2024-03-25T07:27:50;7.90;;;1.73;;
34900;SDS011;21112;51.976;5.660;2024-03-25T07:30:16;5.90;;;1.83;;
34900;SDS011;21112;51.976;5.660;2024-03-25T07:32:44;7.65;;;2.00;;
34900;SDS011;21112;51.976;5.660;2024-03-25T07:35:10;9.00;;;2.40;;
34900;SDS011;21112;51.976;5.660;2024-03-25T07:37:37;13.48;;;2.13;;
34900;SDS011;21112;51.976;5.660;2024-03-25T07:40:05;5.47;;;2.30;;
34900;SDS011;21112;51.976;5.660;2024-03-25T07:42:35;10.65;;;3.65;;
34900;SDS011;21112;51.976;5.660;2024-03-25T07:45:01;9.23;;;3.22;;
34900;SDS011;21112;51.976;5.660;2024-03-25T07:47:29;13.82;;;3.63;;
34900;SDS011;21112;51.976;5.660;2024-03-25T07:49:56;8.93;;;2.97;;
34900;SDS011;21112;51.976;5.660;2024-03-25T07:52:22;11.38;;;2.72;;
34900;SDS011;21112;51.976;5.660;2024-03-25T07:54:48;7.75;;;2.45;;
34900;SDS011;21112;51.976;5.660;2024-03-25T07:57:14;9.82;;;2.88;;
34900;SDS011;21112;51.976;5.660;2024-03-25T07:59:40;12.35;;;3.00;;
34900;SDS011;21112;51.976;5.660;2024-03-25T08:02:06;15.52;;;3.63;;
34900;SDS011;21112;51.976;5.660;2024-03-25T08:04:32;16.65;;;4.90;;
34900;SDS011;21112;51.976;5.660;2024-03-25T08:06:59;13.50;;;3.72;;
34900;SDS011;21112;51.976;5.660;2024-03-25T08:09:24;7.97;;;2.60;;
34900;SDS011;21112;51.976;5.660;2024-03-25T08:11:50;8.68;;;2.72;;
34900;SDS011;21112;51.976;5.660;2024-03-25T08:14:16;13.13;;;2.72;;
34900;SDS011;21112;51.976;5.660;2024-03-25T08:16:42;11.98;;;3.22;;
34900;SDS011;21112;51.976;5.660;2024-03-25T08:19:08;15.35;;;2.28;;
34900;SDS011;21112;51.976;5.660;2024-03-25T08:21:34;12.32;;;2.78;;
34900;SDS011;21112;51.976;5.660;2024-03-25T08:24:01;9.95;;;2.33;;
34900;SDS011;21112;51.976;5.660;2024-03-25T08:26:27;10.67;;;2.27;;
34900;SDS011;21112;51.976;5.660;2024-03-25T08:28:53;10.45;;;2.30;;
34900;SDS011;21112;51.976;5.660;2024-03-25T08:31:22;13.70;;;2.45;;
34900;SDS011;21112;51.976;5.660;2024-03-25T08:36:13;7.97;;;2.13;;
34900;SDS011;21112;51.976;5.660;2024-03-25T08:38:39;13.55;;;2.78;;
34900;SDS011;21112;51.976;5.660;2024-03-25T08:41:06;13.43;;;4.22;;
34900;SDS011;21112;51.976;5.660;2024-03-25T08:43:32;9.85;;;3.58;;
34900;SDS011;21112;51.976;5.660;2024-03-25T08:45:57;8.80;;;3.33;;
34900;SDS011;21112;51.976;5.660;2024-03-25T08:48:23;11.68;;;2.63;;
34900;SDS011;21112;51.976;5.660;2024-03-25T08:50:49;5.68;;;2.20;;
34900;SDS011;21112;51.976;5.660;2024-03-25T08:53:15;10.57;;;2.60;;
34900;SDS011;21112;51.976;5.660;2024-03-25T08:55:45;9.18;;;2.67;;
34900;SDS011;21112;51.976;5.660;2024-03-25T08:58:13;16.98;;;3.47;;
34900;SDS011;21112;51.976;5.660;2024-03-25T09:00:39;9.60;;;2.92;;
34900;SDS011;21112;51.976;5.660;2024-03-25T09:03:05;14.95;;;2.47;;
34900;SDS011;21112;51.976;5.660;2024-03-25T09:05:31;6.93;;;2.50;;
34900;SDS011;21112;51.976;5.660;2024-03-25T09:07:57;38.67;;;12.70;;
34900;SDS011;21112;51.976;5.660;2024-03-25T09:10:23;15.27;;;4.97;;
34900;SDS011;21112;51.976;5.660;2024-03-25T09:13:07;13.55;;;2.83;;
34900;SDS011;21112;51.976;5.660;2024-03-25T09:15:37;20.00;;;3.38;;
34900;SDS011;21112;51.976;5.660;2024-03-25T09:18:02;10.77;;;2.58;;
34900;SDS011;21112;51.976;5.660;2024-03-25T09:20:28;9.88;;;2.55;;
34900;SDS011;21112;51.976;5.660;2024-03-25T09:22:54;9.13;;;2.03;;
34900;SDS011;21112;51.976;5.660;2024-03-25T09:25:20;7.25;;;1.98;;
34900;SDS011;21112;51.976;5.660;2024-03-25T09:27:46;6.97;;;1.58;;
34900;SDS011;21112;51.976;5.660;2024-03-25T09:30:12;9.45;;;1.63;;
34900;SDS011;21112;51.976;5.660;2024-03-25T09:32:40;15.73;;;2.55;;
34900;SDS011;21112;51.976;5.660;2024-03-25T09:35:06;8.05;;;2.30;;
34900;SDS011;21112;51.976;5.660;2024-03-25T09:37:32;10.55;;;2.95;;
34900;SDS011;21112;51.976;5.660;2024-03-25T09:39:59;12.38;;;2.70;;
34900;SDS011;21112;51.976;5.660;2024-03-25T09:42:25;10.73;;;2.67;;
34900;SDS011;21112;51.976;5.660;2024-03-25T09:44:52;12.35;;;2.78;;
34900;SDS011;21112;51.976;5.660;2024-03-25T09:47:19;12.10;;;2.63;;
34900;SDS011;21112;51.976;5.660;2024-03-25T09:49:49;14.43;;;2.75;;
34900;SDS011;21112;51.976;5.660;2024-03-25T09:52:17;11.90;;;3.50;;
34900;SDS011;21112;51.976;5.660;2024-03-25T09:54:42;13.48;;;3.35;;
34900;SDS011;21112;51.976;5.660;2024-03-25T09:57:08;11.20;;;3.25;;
34900;SDS011;21112;51.976;5.660;2024-03-25T09:59:35;11.30;;;3.05;;
34900;SDS011;21112;51.976;5.660;2024-03-25T10:02:04;12.20;;;3.35;;
34900;SDS011;21112;51.976;5.660;2024-03-25T10:04:32;12.40;;;3.17;;
34900;SDS011;21112;51.976;5.660;2024-03-25T10:06:59;20.00;;;4.00;;
34900;SDS011;21112;51.976;5.660;2024-03-25T10:09:27;14.80;;;3.53;;
34900;SDS011;21112;51.976;5.660;2024-03-25T10:11:53;12.93;;;3.13;;
34900;SDS011;21112;51.976;5.660;2024-03-25T10:14:18;7.50;;;2.50;;
34900;SDS011;21112;51.976;5.660;2024-03-25T10:16:48;11.10;;;2.80;;
34900;SDS011;21112;51.976;5.660;2024-03-25T10:19:14;10.45;;;2.63;;
34900;SDS011;21112;51.976;5.660;2024-03-25T10:21:40;14.25;;;3.42;;
34900;SDS011;21112;51.976;5.660;2024-03-25T10:24:08;11.57;;;3.03;;
34900;SDS011;21112;51.976;5.660;2024-03-25T10:26:34;14.88;;;3.00;;
34900;SDS011;21112;51.976;5.660;2024-03-25T10:29:00;10.43;;;3.17;;
34900;SDS011;21112;51.976;5.660;2024-03-25T10:31:28;12.63;;;3.97;;
34900;SDS011;21112;51.976;5.660;2024-03-25T10:33:54;13.45;;;3.83;;
34900;SDS011;21112;51.976;5.660;2024-03-25T10:36:20;13.63;;;3.58;;
34900;SDS011;21112;51.976;5.660;2024-03-25T10:38:48;12.15;;;3.72;;
34900;SDS011;21112;51.976;5.660;2024-03-25T10:41:18;14.85;;;4.03;;
34900;SDS011;21112;51.976;5.660;2024-03-25T10:43:45;13.93;;;4.38;;
34900;SDS011;21112;51.976;5.660;2024-03-25T10:46:12;12.35;;;4.22;;
34900;SDS011;21112;51.976;5.660;2024-03-25T10:48:44;20.10;;;7.03;;
34900;SDS011;21112;51.976;5.660;2024-03-25T10:51:16;14.10;;;5.13;;
34900;SDS011;21112;51.976;5.660;2024-03-25T10:53:43;14.27;;;4.55;;
34900;SDS011;21112;51.976;5.660;2024-03-25T10:56:11;9.32;;;3.90;;
34900;SDS011;21112;51.976;5.660;2024-03-25T10:58:41;12.03;;;3.93;;
34900;SDS011;21112;51.976;5.660;2024-03-25T11:01:08;13.00;;;4.05;;
34900;SDS011;21112;51.976;5.660;2024-03-25T11:03:40;13.65;;;3.70;;
34900;SDS011;21112;51.976;5.660;2024-03-25T11:06:44;7.97;;;4.13;;
34900;SDS011;21112;51.976;5.660;2024-03-25T11:09:33;15.15;;;5.07;;
34900;SDS011;21112;51.976;5.660;2024-03-25T11:12:38;11.88;;;4.47;;
34900;SDS011;21112;51.976;5.660;2024-03-25T11:18:13;12.82;;;4.80;;
34900;SDS011;21112;51.976;5.660;2024-03-25T11:20:39;11.02;;;3.45;;
34900;SDS011;21112;51.976;5.660;2024-03-25T11:23:09;11.57;;;3.40;;
34900;SDS011;21112;51.976;5.660;2024-03-25T11:25:35;11.43;;;3.88;;
34900;SDS011;21112;51.976;5.660;2024-03-25T11:28:01;9.15;;;3.10;;
34900;SDS011;21112;51.976;5.660;2024-03-25T11:30:27;6.35;;;2.72;;
34900;SDS011;21112;51.976;5.660;2024-03-25T11:33:01;11.65;;;4.43;;
34900;SDS011;21112;51.976;5.660;2024-03-25T11:35:29;20.58;;;4.97;;
34900;SDS011;21112;51.976;5.660;2024-03-25T11:38:09;15.60;;;3.83;;
34900;SDS011;21112;51.976;5.660;2024-03-25T11:43:36;7.95;;;2.80;;
34900;SDS011;21112;51.976;5.660;2024-03-25T11:46:29;14.40;;;3.50;;
34900;SDS011;21112;51.976;5.660;2024-03-25T11:49:15;8.48;;;3.40;;
34900;SDS011;21112;51.976;5.660;2024-03-25T11:51:44;7.28;;;2.72;;
34900;SDS011;21112;51.976;5.660;2024-03-25T11:54:10;12.40;;;2.97;;
34900;SDS011;21112;51.976;5.660;2024-03-25T11:56:36;7.72;;;2.50;;
34900;SDS011;21112;51.976;5.660;2024-03-25T11:59:02;7.75;;;2.60;;
34900;SDS011;21112;51.976;5.660;2024-03-25T12:01:28;9.68;;;2.75;;
34900;SDS011;21112;51.976;5.660;2024-03-25T12:03:54;7.80;;;2.45;;
34900;SDS011;21112;51.976;5.660;2024-03-25T12:06:20;10.75;;;3.03;;
34900;SDS011;21112;51.976;5.660;2024-03-25T12:08:49;12.15;;;4.63;;
34900;SDS011;21112;51.976;5.660;2024-03-25T12:11:29;6.63;;;2.58;;
34900;SDS011;21112;51.976;5.660;2024-03-25T12:13:56;12.90;;;3.28;;
34900;SDS011;21112;51.976;5.660;2024-03-25T12:16:22;18.42;;;5.30;;
34900;SDS011;21112;51.976;5.660;2024-03-25T12:18:48;11.18;;;3.22;;
34900;SDS011;21112;51.976;5.660;2024-03-25T12:21:14;14.15;;;3.13;;
34900;SDS011;21112;51.976;5.660;2024-03-25T12:23:41;9.85;;;2.70;;
34900;SDS011;21112;51.976;5.660;2024-03-25T12:28:36;6.53;;;2.58;;
34900;SDS011;21112;51.976;5.660;2024-03-25T12:31:02;8.70;;;2.53;;
34900;SDS011;21112;51.976;5.660;2024-03-25T12:33:28;6.82;;;2.67;;
34900;SDS011;21112;51.976;5.660;2024-03-25T12:35:54;6.47;;;2.35;;
34900;SDS011;21112;51.976;5.660;2024-03-25T12:38:23;9.38;;;2.30;;
34900;SDS011;21112;51.976;5.660;2024-03-25T12:40:53;9.00;;;2.50;;
34900;SDS011;21112;51.976;5.660;2024-03-25T12:43:20;7.65;;;2.00;;
34900;SDS011;21112;51.976;5.660;2024-03-25T12:45:46;7.07;;;2.42;;
34900;SDS011;21112;51.976;5.660;2024-03-25T12:48:12;7.13;;;2.20;;
34900;SDS011;21112;51.976;5.660;2024-03-25T12:50:38;11.40;;;2.38;;
34900;SDS011;21112;51.976;5.660;2024-03-25T12:53:06;8.48;;;2.80;;
34900;SDS011;21112;51.976;5.660;2024-03-25T12:55:34;8.50;;;2.60;;
34900;SDS011;21112;51.976;5.660;2024-03-25T12:57:59;8.88;;;3.00;;
34900;SDS011;21112;51.976;5.660;2024-03-25T13:03:46;5.75;;;1.90;;
34900;SDS011;21112;51.976;5.660;2024-03-25T13:06:12;13.35;;;2.30;;
34900;SDS011;21112;51.976;5.660;2024-03-25T13:08:38;6.95;;;2.10;;
34900;SDS011;21112;51.976;5.660;2024-03-25T13:11:05;8.70;;;2.30;;
34900;SDS011;21112;51.976;5.660;2024-03-25T13:13:31;8.73;;;2.50;;
34900;SDS011;21112;51.976;5.660;2024-03-25T13:15:57;13.93;;;3.35;;
34900;SDS011;21112;51.976;5.660;2024-03-25T13:18:23;5.18;;;2.28;;
34900;SDS011;21112;51.976;5.660;2024-03-25T13:20:50;7.88;;;1.90;;
34900;SDS011;21112;51.976;5.660;2024-03-25T13:23:18;8.10;;;2.28;;
34900;SDS011;21112;51.976;5.660;2024-03-25T13:25:47;7.80;;;2.05;;
34900;SDS011;21112;51.976;5.660;2024-03-25T13:28:13;5.75;;;2.25;;
34900;SDS011;21112;51.976;5.660;2024-03-25T13:30:39;8.93;;;2.42;;
34900;SDS011;21112;51.976;5.660;2024-03-25T13:33:05;9.00;;;2.03;;
34900;SDS011;21112;51.976;5.660;2024-03-25T13:35:30;6.47;;;1.75;;
34900;SDS011;21112;51.976;5.660;2024-03-25T13:37:58;4.20;;;1.83;;
34900;SDS011;21112;51.976;5.660;2024-03-25T13:40:27;7.35;;;2.10;;
34900;SDS011;21112;51.976;5.660;2024-03-25T13:42:52;6.00;;;1.73;;
34900;SDS011;21112;51.976;5.660;2024-03-25T13:45:21;3.92;;;1.65;;
34900;SDS011;21112;51.976;5.660;2024-03-25T13:47:47;6.43;;;1.90;;
34900;SDS011;21112;51.976;5.660;2024-03-25T13:50:12;4.63;;;2.03;;
34900;SDS011;21112;51.976;5.660;2024-03-25T13:52:38;7.07;;;2.35;;
34900;SDS011;21112;51.976;5.660;2024-03-25T13:55:06;12.20;;;2.80;;
34900;SDS011;21112;51.976;5.660;2024-03-25T13:57:34;5.93;;;2.13;;
34900;SDS011;21112;51.976;5.660;2024-03-25T14:00:00;4.78;;;2.00;;
34900;SDS011;21112;51.976;5.660;2024-03-25T14:02:26;5.00;;;2.08;;
34900;SDS011;21112;51.976;5.660;2024-03-25T14:04:52;5.35;;;1.90;;
34900;SDS011;21112;51.976;5.660;2024-03-25T14:07:18;4.78;;;1.95;;
34900;SDS011;21112;51.976;5.660;2024-03-25T14:09:44;10.05;;;2.15;;
34900;SDS011;21112;51.976;5.660;2024-03-25T14:12:11;6.68;;;2.45;;
34900;SDS011;21112;51.976;5.660;2024-03-25T14:14:36;6.05;;;2.00;;
34900;SDS011;21112;51.976;5.660;2024-03-25T14:17:02;3.92;;;1.88;;
34900;SDS011;21112;51.976;5.660;2024-03-25T14:19:30;6.38;;;1.83;;
34900;SDS011;21112;51.976;5.660;2024-03-25T14:21:58;5.00;;;1.83;;
34900;SDS011;21112;51.976;5.660;2024-03-25T14:24:24;6.43;;;1.90;;
34900;SDS011;21112;51.976;5.660;2024-03-25T14:26:50;7.75;;;1.80;;
34900;SDS011;21112;51.976;5.660;2024-03-25T14:29:18;5.60;;;1.65;;
34900;SDS011;21112;51.976;5.660;2024-03-25T14:31:43;6.30;;;1.73;;
34900;SDS011;21112;51.976;5.660;2024-03-25T14:34:09;2.97;;;1.15;;
34900;SDS011;21112;51.976;5.660;2024-03-25T14:36:35;8.30;;;1.92;;
34900;SDS011;21112;51.976;5.660;2024-03-25T14:39:01;6.75;;;1.75;;
34900;SDS011;21112;51.976;5.660;2024-03-25T14:41:26;4.90;;;1.90;;
34900;SDS011;21112;51.976;5.660;2024-03-25T14:43:52;7.07;;;2.20;;
34900;SDS011;21112;51.976;5.660;2024-03-25T14:46:30;7.70;;;1.92;;
34900;SDS011;21112;51.976;5.660;2024-03-25T14:51:22;6.63;;;1.80;;
34900;SDS011;21112;51.976;5.660;2024-03-25T14:53:48;8.63;;;2.20;;
34900;SDS011;21112;51.976;5.660;2024-03-25T14:56:16;6.75;;;2.05;;
34900;SDS011;21112;51.976;5.660;2024-03-25T14:58:42;4.13;;;2.00;;
34900;SDS011;21112;51.976;5.660;2024-03-25T15:01:08;3.80;;;1.50;;
34900;SDS011;21112;51.976;5.660;2024-03-25T15:03:35;4.78;;;2.03;;
34900;SDS011;21112;51.976;5.660;2024-03-25T15:06:04;5.43;;;1.83;;
34900;SDS011;21112;51.976;5.660;2024-03-25T15:08:31;3.58;;;1.60;;